sensor_id;sensor_type;location;lat;lon;timestamp;P1;durP1;ratioP1;P2;durP2;ratioP2
42802;SDS011;28447;48.682;9.022;2023-11-18T05:00:38;9.23;;;6.00;;
42802;SDS011;28447;48.682;9.022;2023-11-18T05:03:06;9.90;;;6.17;;
42802;SDS011;28447;48.682;9.022;2023-11-18T05:05:38;12.33;;;6.23;;
42802;SDS011;28447;48.682;9.022;2023-11-18T05:08:04;11.37;;;7.37;;
42802;SDS011;28447;48.682;9.022;2023-11-18T05:10:34;10.70;;;6.57;;
42802;SDS011;28447;48.682;9.022;2023-11-18T05:13:01;11.37;;;7.10;;
42802;SDS011;28447;48.682;9.022;2023-11-18T05:15:27;13.60;;;6.97;;
42802;SDS011;28447;48.682;9.022;2023-11-18T05:17:55;13.57;;;7.07;;
42802;SDS011;28447;48.682;9.022;2023-11-18T05:20:21;13.33;;;7.63;;
42802;SDS011;28447;48.682;9.022;2023-11-18T05:22:47;10.80;;;6.67;;
42802;SDS011;28447;48.682;9.022;2023-11-18T05:25:14;9.70;;;6.53;;
42802;SDS011;28447;48.682;9.022;2023-11-18T05:27:40;15.57;;;8.17;;
42802;SDS011;28447;48.682;9.022;2023-11-18T05:30:06;10.93;;;7.40;;
42802;SDS011;28447;48.682;9.022;2023-11-18T05:32:33;11.10;;;7.23;;
42802;SDS011;28447;48.682;9.022;2023-11-18T05:34:59;12.57;;;6.77;;
42802;SDS011;28447;48.682;9.022;2023-11-18T05:37:25;10.70;;;7.30;;
42802;SDS011;28447;48.682;9.022;2023-11-18T05:39:54;12.03;;;7.73;;
42802;SDS011;28447;48.682;9.022;2023-11-18T05:42:27;10.80;;;6.93;;
42802;SDS011;28447;48.682;9.022;2023-11-18T05:44:54;9.10;;;6.90;;
42802;SDS011;28447;48.682;9.022;2023-11-18T05:47:24;10.90;;;6.80;;
42802;SDS011;28447;48.682;9.022;2023-11-18T05:49:51;10.20;;;6.40;;
42802;SDS011;28447;48.682;9.022;2023-11-18T05:52:17;11.03;;;7.47;;
42802;SDS011;28447;48.682;9.022;2023-11-18T05:54:43;12.40;;;7.77;;
42802;SDS011;28447;48.682;9.022;2023-11-18T05:57:10;11.70;;;7.63;;
42802;SDS011;28447;48.682;9.022;2023-11-18T05:59:36;10.80;;;6.73;;
42802;SDS011;28447;48.682;9.022;2023-11-18T06:02:02;12.23;;;7.20;;
42802;SDS011;28447;48.682;9.022;2023-11-18T06:04:28;11.97;;;7.30;;
42802;SDS011;28447;48.682;9.022;2023-11-18T06:06:56;12.27;;;7.57;;
42802;SDS011;28447;48.682;9.022;2023-11-18T06:09:22;12.30;;;7.43;;
42802;SDS011;28447;48.682;9.022;2023-11-18T06:11:50;13.20;;;8.57;;
42802;SDS011;28447;48.682;9.022;2023-11-18T06:14:18;12.80;;;7.87;;
42802;SDS011;28447;48.682;9.022;2023-11-18T06:16:44;10.47;;;6.87;;
42802;SDS011;28447;48.682;9.022;2023-11-18T06:19:11;12.40;;;7.70;;
42802;SDS011;28447;48.682;9.022;2023-11-18T06:21:38;13.03;;;8.30;;
42802;SDS011;28447;48.682;9.022;2023-11-18T06:24:05;12.53;;;8.13;;
42802;SDS011;28447;48.682;9.022;2023-11-18T06:26:31;15.87;;;9.10;;
42802;SDS011;28447;48.682;9.022;2023-11-18T06:29:01;15.10;;;9.03;;
42802;SDS011;28447;48.682;9.022;2023-11-18T06:31:27;16.07;;;9.03;;
42802;SDS011;28447;48.682;9.022;2023-11-18T06:33:54;15.23;;;9.93;;
42802;SDS011;28447;48.682;9.022;2023-11-18T06:36:20;18.27;;;10.20;;
42802;SDS011;28447;48.682;9.022;2023-11-18T06:38:47;20.77;;;11.13;;
42802;SDS011;28447;48.682;9.022;2023-11-18T06:41:15;15.40;;;9.70;;
42802;SDS011;28447;48.682;9.022;2023-11-18T06:43:42;16.30;;;9.80;;
42802;SDS011;28447;48.682;9.022;2023-11-18T06:46:24;16.30;;;9.93;;
42802;SDS011;28447;48.682;9.022;2023-11-18T06:48:51;15.97;;;9.90;;
42802;SDS011;28447;48.682;9.022;2023-11-18T06:51:22;20.73;;;11.00;;
42802;SDS011;28447;48.682;9.022;2023-11-18T06:53:49;13.07;;;8.40;;
42802;SDS011;28447;48.682;9.022;2023-11-18T06:56:16;19.20;;;9.77;;
42802;SDS011;28447;48.682;9.022;2023-11-18T06:58:42;15.87;;;10.07;;
42802;SDS011;28447;48.682;9.022;2023-11-18T07:01:09;13.67;;;9.40;;
42802;SDS011;28447;48.682;9.022;2023-11-18T07:03:35;17.03;;;9.50;;
42802;SDS011;28447;48.682;9.022;2023-11-18T07:06:02;14.87;;;9.00;;
42802;SDS011;28447;48.682;9.022;2023-11-18T07:08:30;18.70;;;10.50;;
42802;SDS011;28447;48.682;9.022;2023-11-18T07:10:56;18.10;;;10.70;;
42802;SDS011;28447;48.682;9.022;2023-11-18T07:13:22;18.60;;;11.23;;
42802;SDS011;28447;48.682;9.022;2023-11-18T07:15:49;22.13;;;12.57;;
42802;SDS011;28447;48.682;9.022;2023-11-18T07:18:16;18.70;;;12.43;;
42802;SDS011;28447;48.682;9.022;2023-11-18T07:20:43;17.93;;;12.40;;
42802;SDS011;28447;48.682;9.022;2023-11-18T07:23:09;18.90;;;11.73;;
42802;SDS011;28447;48.682;9.022;2023-11-18T07:25:35;16.37;;;10.40;;
42802;SDS011;28447;48.682;9.022;2023-11-18T07:28:01;17.97;;;11.30;;
42802;SDS011;28447;48.682;9.022;2023-11-18T07:30:27;20.53;;;11.90;;
42802;SDS011;28447;48.682;9.022;2023-11-18T07:32:53;18.10;;;10.70;;
42802;SDS011;28447;48.682;9.022;2023-11-18T07:35:20;15.60;;;10.67;;
42802;SDS011;28447;48.682;9.022;2023-11-18T07:37:47;17.80;;;10.97;;
42802;SDS011;28447;48.682;9.022;2023-11-18T07:40:13;24.07;;;10.30;;
42802;SDS011;28447;48.682;9.022;2023-11-18T07:42:46;15.37;;;10.17;;
42802;SDS011;28447;48.682;9.022;2023-11-18T07:45:14;18.83;;;10.70;;
42802;SDS011;28447;48.682;9.022;2023-11-18T07:47:42;16.90;;;11.27;;
42802;SDS011;28447;48.682;9.022;2023-11-18T07:50:08;15.27;;;9.40;;
42802;SDS011;28447;48.682;9.022;2023-11-18T07:52:37;15.00;;;10.90;;
42802;SDS011;28447;48.682;9.022;2023-11-18T07:55:03;16.47;;;9.93;;
42802;SDS011;28447;48.682;9.022;2023-11-18T07:57:29;12.37;;;9.10;;
42802;SDS011;28447;48.682;9.022;2023-11-18T07:59:55;13.77;;;9.93;;
42802;SDS011;28447;48.682;9.022;2023-11-18T08:02:22;12.53;;;8.53;;
42802;SDS011;28447;48.682;9.022;2023-11-18T08:04:50;12.67;;;8.20;;
42802;SDS011;28447;48.682;9.022;2023-11-18T08:07:17;12.73;;;7.87;;
42802;SDS011;28447;48.682;9.022;2023-11-18T08:09:44;12.37;;;7.73;;
42802;SDS011;28447;48.682;9.022;2023-11-18T08:12:10;10.50;;;7.10;;
42802;SDS011;28447;48.682;9.022;2023-11-18T08:14:35;10.57;;;7.43;;
42802;SDS011;28447;48.682;9.022;2023-11-18T08:17:02;9.43;;;6.53;;
42802;SDS011;28447;48.682;9.022;2023-11-18T08:19:29;9.50;;;7.03;;
42802;SDS011;28447;48.682;9.022;2023-11-18T08:21:55;8.07;;;5.50;;
42802;SDS011;28447;48.682;9.022;2023-11-18T08:24:23;8.93;;;6.30;;
42802;SDS011;28447;48.682;9.022;2023-11-18T08:26:49;9.97;;;6.60;;
42802;SDS011;28447;48.682;9.022;2023-11-18T08:29:15;9.40;;;5.60;;
42802;SDS011;28447;48.682;9.022;2023-11-18T08:31:41;10.77;;;5.93;;
42802;SDS011;28447;48.682;9.022;2023-11-18T08:34:09;9.20;;;5.20;;
42802;SDS011;28447;48.682;9.022;2023-11-18T08:36:35;7.63;;;5.60;;
42802;SDS011;28447;48.682;9.022;2023-11-18T08:39:02;11.13;;;7.43;;
42802;SDS011;28447;48.682;9.022;2023-11-18T08:41:29;9.97;;;6.80;;
42802;SDS011;28447;48.682;9.022;2023-11-18T08:43:56;8.73;;;5.13;;
42802;SDS011;28447;48.682;9.022;2023-11-18T08:46:22;10.13;;;6.20;;
42802;SDS011;28447;48.682;9.022;2023-11-18T08:48:48;7.90;;;4.80;;
42802;SDS011;28447;48.682;9.022;2023-11-18T08:51:14;9.83;;;4.93;;
42802;SDS011;28447;48.682;9.022;2023-11-18T08:53:41;6.30;;;4.37;;
42802;SDS011;28447;48.682;9.022;2023-11-18T08:56:08;8.40;;;4.00;;
42802;SDS011;28447;48.682;9.022;2023-11-18T08:58:40;7.03;;;4.10;;
42802;SDS011;28447;48.682;9.022;2023-11-18T09:01:06;4.90;;;3.60;;
42802;SDS011;28447;48.682;9.022;2023-11-18T09:03:41;8.10;;;5.10;;
42802;SDS011;28447;48.682;9.022;2023-11-18T09:06:17;8.53;;;3.47;;
42802;SDS011;28447;48.682;9.022;2023-11-18T09:08:43;8.57;;;5.70;;
42802;SDS011;28447;48.682;9.022;2023-11-18T09:11:11;7.17;;;5.30;;
42802;SDS011;28447;48.682;9.022;2023-11-18T09:13:42;4.50;;;3.20;;
42802;SDS011;28447;48.682;9.022;2023-11-18T09:16:09;3.43;;;3.13;;
42802;SDS011;28447;48.682;9.022;2023-11-18T09:18:40;4.80;;;3.20;;
42802;SDS011;28447;48.682;9.022;2023-11-18T09:21:08;3.73;;;2.80;;
42802;SDS011;28447;48.682;9.022;2023-11-18T09:23:39;3.43;;;2.73;;
42802;SDS011;28447;48.682;9.022;2023-11-18T09:26:06;3.97;;;3.30;;
42802;SDS011;28447;48.682;9.022;2023-11-18T09:28:35;4.90;;;3.00;;
42802;SDS011;28447;48.682;9.022;2023-11-18T09:31:02;4.73;;;3.27;;
42802;SDS011;28447;48.682;9.022;2023-11-18T09:33:29;4.03;;;3.20;;
42802;SDS011;28447;48.682;9.022;2023-11-18T09:38:25;7.27;;;3.93;;
42802;SDS011;28447;48.682;9.022;2023-11-18T09:40:54;4.80;;;3.83;;
42802;SDS011;28447;48.682;9.022;2023-11-18T09:43:21;3.97;;;2.90;;
42802;SDS011;28447;48.682;9.022;2023-11-18T09:45:49;11.53;;;7.90;;
42802;SDS011;28447;48.682;9.022;2023-11-18T09:48:20;12.10;;;6.67;;
42802;SDS011;28447;48.682;9.022;2023-11-18T09:50:50;5.47;;;3.13;;
42802;SDS011;28447;48.682;9.022;2023-11-18T09:53:17;2.93;;;2.60;;
42802;SDS011;28447;48.682;9.022;2023-11-18T09:56:06;2.50;;;2.30;;
42802;SDS011;28447;48.682;9.022;2023-11-18T09:58:37;2.97;;;2.37;;
42802;SDS011;28447;48.682;9.022;2023-11-18T10:01:06;4.00;;;2.90;;
42802;SDS011;28447;48.682;9.022;2023-11-18T10:03:34;4.70;;;3.80;;
42802;SDS011;28447;48.682;9.022;2023-11-18T10:06:04;5.80;;;2.60;;
42802;SDS011;28447;48.682;9.022;2023-11-18T10:08:31;3.23;;;2.40;;
42802;SDS011;28447;48.682;9.022;2023-11-18T10:10:57;4.37;;;2.37;;
42802;SDS011;28447;48.682;9.022;2023-11-18T10:13:33;2.43;;;2.03;;
42802;SDS011;28447;48.682;9.022;2023-11-18T10:16:02;3.40;;;2.30;;
42802;SDS011;28447;48.682;9.022;2023-11-18T10:18:30;3.40;;;2.10;;
42802;SDS011;28447;48.682;9.022;2023-11-18T10:21:00;4.17;;;2.20;;
42802;SDS011;28447;48.682;9.022;2023-11-18T10:23:26;3.83;;;2.43;;
42802;SDS011;28447;48.682;9.022;2023-11-18T10:25:53;4.00;;;2.83;;
42802;SDS011;28447;48.682;9.022;2023-11-18T10:30:48;4.60;;;2.50;;
42802;SDS011;28447;48.682;9.022;2023-11-18T10:33:15;4.70;;;2.50;;
42802;SDS011;28447;48.682;9.022;2023-11-18T10:35:52;3.43;;;2.40;;
42802;SDS011;28447;48.682;9.022;2023-11-18T10:38:20;3.10;;;2.30;;
42802;SDS011;28447;48.682;9.022;2023-11-18T10:40:52;4.27;;;2.50;;
42802;SDS011;28447;48.682;9.022;2023-11-18T10:43:18;5.67;;;3.37;;
42802;SDS011;28447;48.682;9.022;2023-11-18T10:45:44;3.90;;;2.80;;
42802;SDS011;28447;48.682;9.022;2023-11-18T10:48:11;3.37;;;3.07;;
42802;SDS011;28447;48.682;9.022;2023-11-18T10:50:41;3.90;;;2.23;;
42802;SDS011;28447;48.682;9.022;2023-11-18T10:53:09;3.37;;;2.10;;
42802;SDS011;28447;48.682;9.022;2023-11-18T10:55:36;2.90;;;2.17;;
42802;SDS011;28447;48.682;9.022;2023-11-18T10:58:03;3.07;;;2.43;;
42802;SDS011;28447;48.682;9.022;2023-11-18T11:00:31;3.27;;;2.17;;
42802;SDS011;28447;48.682;9.022;2023-11-18T11:03:12;2.53;;;2.07;;
42802;SDS011;28447;48.682;9.022;2023-11-18T11:05:39;4.13;;;2.63;;
42802;SDS011;28447;48.682;9.022;2023-11-18T11:08:07;4.70;;;2.20;;
42802;SDS011;28447;48.682;9.022;2023-11-18T11:10:34;4.43;;;3.20;;
42802;SDS011;28447;48.682;9.022;2023-11-18T11:13:01;4.90;;;3.77;;
42802;SDS011;28447;48.682;9.022;2023-11-18T11:15:30;6.97;;;2.97;;
42802;SDS011;28447;48.682;9.022;2023-11-18T11:18:07;8.20;;;3.40;;
42802;SDS011;28447;48.682;9.022;2023-11-18T11:20:37;3.57;;;2.60;;
42802;SDS011;28447;48.682;9.022;2023-11-18T11:28:22;7.73;;;4.57;;
42802;SDS011;28447;48.682;9.022;2023-11-18T11:31:03;5.07;;;2.73;;
42802;SDS011;28447;48.682;9.022;2023-11-18T11:36:20;3.00;;;2.07;;
42802;SDS011;28447;48.682;9.022;2023-11-18T11:38:48;3.40;;;2.20;;
42802;SDS011;28447;48.682;9.022;2023-11-18T11:41:16;2.53;;;2.20;;
42802;SDS011;28447;48.682;9.022;2023-11-18T11:43:51;5.03;;;2.40;;
42802;SDS011;28447;48.682;9.022;2023-11-18T11:46:20;4.30;;;3.30;;
42802;SDS011;28447;48.682;9.022;2023-11-18T11:48:48;2.70;;;2.50;;
42802;SDS011;28447;48.682;9.022;2023-11-18T11:51:20;5.10;;;2.90;;
42802;SDS011;28447;48.682;9.022;2023-11-18T11:54:07;4.03;;;2.87;;
42802;SDS011;28447;48.682;9.022;2023-11-18T11:56:50;8.40;;;3.47;;
42802;SDS011;28447;48.682;9.022;2023-11-18T12:02:23;3.57;;;2.87;;
42802;SDS011;28447;48.682;9.022;2023-11-18T12:04:51;3.10;;;2.80;;
42802;SDS011;28447;48.682;9.022;2023-11-18T12:07:22;4.27;;;3.03;;
42802;SDS011;28447;48.682;9.022;2023-11-18T12:09:58;5.40;;;3.30;;
42802;SDS011;28447;48.682;9.022;2023-11-18T12:12:26;5.50;;;2.93;;
42802;SDS011;28447;48.682;9.022;2023-11-18T12:14:53;4.77;;;3.00;;
42802;SDS011;28447;48.682;9.022;2023-11-18T12:17:21;3.40;;;2.83;;
42802;SDS011;28447;48.682;9.022;2023-11-18T12:19:48;4.57;;;2.83;;
42802;SDS011;28447;48.682;9.022;2023-11-18T12:22:19;3.63;;;2.93;;
42802;SDS011;28447;48.682;9.022;2023-11-18T12:35:19;4.37;;;3.10;;
42802;SDS011;28447;48.682;9.022;2023-11-18T12:38:12;4.70;;;2.90;;
42802;SDS011;28447;48.682;9.022;2023-11-18T12:43:11;4.13;;;3.07;;
42802;SDS011;28447;48.682;9.022;2023-11-18T12:48:17;5.13;;;3.33;;
42802;SDS011;28447;48.682;9.022;2023-11-18T12:50:51;6.03;;;3.43;;
42802;SDS011;28447;48.682;9.022;2023-11-18T12:53:19;4.57;;;3.40;;
42802;SDS011;28447;48.682;9.022;2023-11-18T12:55:46;4.40;;;3.27;;
42802;SDS011;28447;48.682;9.022;2023-11-18T12:58:13;4.47;;;3.17;;
42802;SDS011;28447;48.682;9.022;2023-11-18T13:00:40;3.70;;;3.23;;
42802;SDS011;28447;48.682;9.022;2023-11-18T13:03:07;3.90;;;3.30;;
42802;SDS011;28447;48.682;9.022;2023-11-18T13:05:35;4.53;;;3.50;;
42802;SDS011;28447;48.682;9.022;2023-11-18T13:08:02;5.07;;;3.73;;
42802;SDS011;28447;48.682;9.022;2023-11-18T13:10:28;4.83;;;3.40;;
42802;SDS011;28447;48.682;9.022;2023-11-18T13:12:54;6.83;;;4.33;;
42802;SDS011;28447;48.682;9.022;2023-11-18T13:15:20;4.07;;;3.30;;
42802;SDS011;28447;48.682;9.022;2023-11-18T13:20:25;7.53;;;3.80;;
42802;SDS011;28447;48.682;9.022;2023-11-18T13:22:51;5.93;;;3.53;;
42802;SDS011;28447;48.682;9.022;2023-11-18T13:25:21;4.27;;;3.80;;
42802;SDS011;28447;48.682;9.022;2023-11-18T13:27:50;6.20;;;3.83;;
42802;SDS011;28447;48.682;9.022;2023-11-18T13:30:17;6.13;;;4.20;;
42802;SDS011;28447;48.682;9.022;2023-11-18T13:32:43;6.43;;;4.03;;
42802;SDS011;28447;48.682;9.022;2023-11-18T13:35:10;5.90;;;4.17;;
42802;SDS011;28447;48.682;9.022;2023-11-18T13:37:38;8.20;;;3.70;;
42802;SDS011;28447;48.682;9.022;2023-11-18T13:40:06;4.30;;;3.40;;
42802;SDS011;28447;48.682;9.022;2023-11-18T13:42:36;6.63;;;4.50;;
42802;SDS011;28447;48.682;9.022;2023-11-18T13:45:04;6.50;;;5.00;;
42802;SDS011;28447;48.682;9.022;2023-11-18T13:47:37;5.60;;;4.40;;
42802;SDS011;28447;48.682;9.022;2023-11-18T13:50:07;5.93;;;3.60;;
42802;SDS011;28447;48.682;9.022;2023-11-18T13:52:38;4.87;;;3.80;;
42802;SDS011;28447;48.682;9.022;2023-11-18T13:55:05;8.00;;;4.30;;
42802;SDS011;28447;48.682;9.022;2023-11-18T13:57:32;7.07;;;4.60;;
42802;SDS011;28447;48.682;9.022;2023-11-18T13:59:58;5.93;;;3.90;;
42802;SDS011;28447;48.682;9.022;2023-11-18T14:02:24;7.33;;;4.70;;
42802;SDS011;28447;48.682;9.022;2023-11-18T14:04:50;6.77;;;4.20;;
42802;SDS011;28447;48.682;9.022;2023-11-18T14:07:16;5.50;;;3.93;;
42802;SDS011;28447;48.682;9.022;2023-11-18T14:09:45;12.33;;;7.70;;
42802;SDS011;28447;48.682;9.022;2023-11-18T14:12:12;7.47;;;6.30;;
42802;SDS011;28447;48.682;9.022;2023-11-18T14:14:38;5.37;;;4.50;;
42802;SDS011;28447;48.682;9.022;2023-11-18T14:17:05;10.23;;;5.70;;
42802;SDS011;28447;48.682;9.022;2023-11-18T14:19:32;6.50;;;5.03;;
42802;SDS011;28447;48.682;9.022;2023-11-18T14:22:01;6.60;;;5.00;;
42802;SDS011;28447;48.682;9.022;2023-11-18T14:24:29;6.20;;;4.20;;
42802;SDS011;28447;48.682;9.022;2023-11-18T14:26:57;6.00;;;4.20;;
42802;SDS011;28447;48.682;9.022;2023-11-18T14:29:23;9.03;;;5.00;;
42802;SDS011;28447;48.682;9.022;2023-11-18T14:31:49;6.40;;;3.30;;
42802;SDS011;28447;48.682;9.022;2023-11-18T14:34:15;6.07;;;4.03;;
42802;SDS011;28447;48.682;9.022;2023-11-18T14:36:41;7.43;;;4.30;;
42802;SDS011;28447;48.682;9.022;2023-11-18T14:39:10;8.13;;;4.23;;
42802;SDS011;28447;48.682;9.022;2023-11-18T14:41:39;6.83;;;4.20;;
42802;SDS011;28447;48.682;9.022;2023-11-18T14:44:05;4.57;;;3.20;;
42802;SDS011;28447;48.682;9.022;2023-11-18T14:46:34;4.83;;;3.30;;
42802;SDS011;28447;48.682;9.022;2023-11-18T14:49:00;4.27;;;3.20;;
42802;SDS011;28447;48.682;9.022;2023-11-18T14:51:45;4.00;;;3.03;;
42802;SDS011;28447;48.682;9.022;2023-11-18T14:54:20;5.67;;;4.00;;
42802;SDS011;28447;48.682;9.022;2023-11-18T14:56:46;7.43;;;5.20;;
42802;SDS011;28447;48.682;9.022;2023-11-18T14:59:14;5.80;;;4.00;;
42802;SDS011;28447;48.682;9.022;2023-11-18T15:01:40;7.00;;;3.73;;
42802;SDS011;28447;48.682;9.022;2023-11-18T15:04:18;5.47;;;3.27;;
42802;SDS011;28447;48.682;9.022;2023-11-18T15:06:44;6.60;;;3.67;;
42802;SDS011;28447;48.682;9.022;2023-11-18T15:09:10;7.23;;;3.80;;
42802;SDS011;28447;48.682;9.022;2023-11-18T15:11:47;4.63;;;3.30;;
42802;SDS011;28447;48.682;9.022;2023-11-18T15:14:15;6.37;;;3.90;;
42802;SDS011;28447;48.682;9.022;2023-11-18T15:16:44;5.10;;;4.00;;
42802;SDS011;28447;48.682;9.022;2023-11-18T15:19:12;11.73;;;4.07;;
42802;SDS011;28447;48.682;9.022;2023-11-18T15:21:43;7.60;;;4.87;;
42802;SDS011;28447;48.682;9.022;2023-11-18T15:24:10;7.07;;;6.30;;
42802;SDS011;28447;48.682;9.022;2023-11-18T15:26:39;8.17;;;5.40;;
42802;SDS011;28447;48.682;9.022;2023-11-18T15:29:05;6.03;;;4.33;;
42802;SDS011;28447;48.682;9.022;2023-11-18T15:31:39;8.50;;;4.83;;
42802;SDS011;28447;48.682;9.022;2023-11-18T15:34:05;6.33;;;4.30;;
42802;SDS011;28447;48.682;9.022;2023-11-18T15:36:31;5.60;;;4.73;;
42802;SDS011;28447;48.682;9.022;2023-11-18T15:38:57;5.70;;;4.20;;
42802;SDS011;28447;48.682;9.022;2023-11-18T15:41:28;10.10;;;4.97;;
42802;SDS011;28447;48.682;9.022;2023-11-18T15:43:55;4.67;;;4.10;;
42802;SDS011;28447;48.682;9.022;2023-11-18T15:46:21;4.80;;;4.13;;
42802;SDS011;28447;48.682;9.022;2023-11-18T15:48:47;6.23;;;3.80;;
42802;SDS011;28447;48.682;9.022;2023-11-18T15:51:13;7.17;;;3.77;;
42802;SDS011;28447;48.682;9.022;2023-11-18T15:53:41;9.17;;;4.23;;
42802;SDS011;28447;48.682;9.022;2023-11-18T15:56:08;6.23;;;4.00;;
42802;SDS011;28447;48.682;9.022;2023-11-18T15:58:34;4.83;;;3.80;;
42802;SDS011;28447;48.682;9.022;2023-11-18T16:01:01;5.77;;;3.80;;
42802;SDS011;28447;48.682;9.022;2023-11-18T16:03:27;7.20;;;4.07;;
42802;SDS011;28447;48.682;9.022;2023-11-18T16:05:53;7.27;;;3.93;;
42802;SDS011;28447;48.682;9.022;2023-11-18T16:08:20;7.33;;;3.80;;
42802;SDS011;28447;48.682;9.022;2023-11-18T16:10:46;4.87;;;3.30;;
42802;SDS011;28447;48.682;9.022;2023-11-18T16:13:12;8.13;;;3.50;;
42802;SDS011;28447;48.682;9.022;2023-11-18T16:15:38;5.90;;;4.07;;
42802;SDS011;28447;48.682;9.022;2023-11-18T16:18:04;6.90;;;4.83;;
42802;SDS011;28447;48.682;9.022;2023-11-18T16:20:30;4.67;;;3.97;;
42802;SDS011;28447;48.682;9.022;2023-11-18T16:23:00;6.30;;;3.97;;
42802;SDS011;28447;48.682;9.022;2023-11-18T16:25:29;4.40;;;3.87;;
42802;SDS011;28447;48.682;9.022;2023-11-18T16:27:56;4.87;;;3.50;;
42802;SDS011;28447;48.682;9.022;2023-11-18T16:30:24;5.27;;;4.00;;
42802;SDS011;28447;48.682;9.022;2023-11-18T16:32:53;5.97;;;3.77;;
42802;SDS011;28447;48.682;9.022;2023-11-18T16:35:20;5.30;;;3.37;;
42802;SDS011;28447;48.682;9.022;2023-11-18T16:37:46;6.13;;;3.67;;
42802;SDS011;28447;48.682;9.022;2023-11-18T16:40:13;6.33;;;3.70;;
42802;SDS011;28447;48.682;9.022;2023-11-18T16:42:43;7.77;;;4.47;;
42802;SDS011;28447;48.682;9.022;2023-11-18T16:45:12;4.70;;;3.77;;
42802;SDS011;28447;48.682;9.022;2023-11-18T16:47:38;3.73;;;2.90;;
42802;SDS011;28447;48.682;9.022;2023-11-18T16:50:15;5.27;;;3.87;;
42802;SDS011;28447;48.682;9.022;2023-11-18T16:52:41;7.80;;;3.70;;
42802;SDS011;28447;48.682;9.022;2023-11-18T16:55:08;6.50;;;4.03;;
42802;SDS011;28447;48.682;9.022;2023-11-18T16:57:38;5.97;;;3.67;;
42802;SDS011;28447;48.682;9.022;2023-11-18T17:00:08;7.13;;;4.17;;
42802;SDS011;28447;48.682;9.022;2023-11-18T17:02:43;5.70;;;4.07;;
42802;SDS011;28447;48.682;9.022;2023-11-18T17:05:09;4.87;;;4.10;;
42802;SDS011;28447;48.682;9.022;2023-11-18T17:07:36;5.80;;;4.47;;
42802;SDS011;28447;48.682;9.022;2023-11-18T17:10:02;3.67;;;2.13;;
42802;SDS011;28447;48.682;9.022;2023-11-18T17:12:36;5.43;;;3.30;;
42802;SDS011;28447;48.682;9.022;2023-11-18T17:15:02;4.00;;;3.27;;
42802;SDS011;28447;48.682;9.022;2023-11-18T17:17:28;4.20;;;3.27;;
42802;SDS011;28447;48.682;9.022;2023-11-18T17:19:54;4.30;;;3.10;;
42802;SDS011;28447;48.682;9.022;2023-11-18T17:22:20;5.20;;;3.60;;
42802;SDS011;28447;48.682;9.022;2023-11-18T17:24:46;5.10;;;3.40;;
42802;SDS011;28447;48.682;9.022;2023-11-18T17:27:13;4.20;;;2.97;;
42802;SDS011;28447;48.682;9.022;2023-11-18T17:29:39;4.50;;;3.37;;
42802;SDS011;28447;48.682;9.022;2023-11-18T17:32:05;4.33;;;3.20;;
42802;SDS011;28447;48.682;9.022;2023-11-18T17:34:31;3.70;;;3.10;;
42802;SDS011;28447;48.682;9.022;2023-11-18T17:36:58;9.00;;;3.30;;
42802;SDS011;28447;48.682;9.022;2023-11-18T17:39:24;5.20;;;3.30;;
42802;SDS011;28447;48.682;9.022;2023-11-18T17:41:50;6.07;;;3.83;;
42802;SDS011;28447;48.682;9.022;2023-11-18T17:44:17;4.27;;;3.07;;
42802;SDS011;28447;48.682;9.022;2023-11-18T17:46:43;4.70;;;3.90;;
42802;SDS011;28447;48.682;9.022;2023-11-18T17:49:09;5.40;;;3.90;;
42802;SDS011;28447;48.682;9.022;2023-11-18T17:51:35;4.13;;;3.53;;
42802;SDS011;28447;48.682;9.022;2023-11-18T17:54:01;4.83;;;3.20;;
42802;SDS011;28447;48.682;9.022;2023-11-18T17:56:29;5.80;;;3.40;;
42802;SDS011;28447;48.682;9.022;2023-11-18T17:58:55;4.80;;;3.23;;
42802;SDS011;28447;48.682;9.022;2023-11-18T18:01:22;8.10;;;3.17;;
42802;SDS011;28447;48.682;9.022;2023-11-18T18:03:48;4.07;;;3.00;;
42802;SDS011;28447;48.682;9.022;2023-11-18T18:06:14;5.63;;;3.37;;
42802;SDS011;28447;48.682;9.022;2023-11-18T18:08:41;4.20;;;2.97;;
42802;SDS011;28447;48.682;9.022;2023-11-18T18:11:07;4.07;;;2.77;;
42802;SDS011;28447;48.682;9.022;2023-11-18T18:13:33;3.57;;;2.87;;
42802;SDS011;28447;48.682;9.022;2023-11-18T18:16:00;3.23;;;2.90;;
42802;SDS011;28447;48.682;9.022;2023-11-18T18:18:25;5.23;;;3.03;;
42802;SDS011;28447;48.682;9.022;2023-11-18T18:20:51;4.00;;;3.17;;
42802;SDS011;28447;48.682;9.022;2023-11-18T18:23:17;4.50;;;3.13;;
42802;SDS011;28447;48.682;9.022;2023-11-18T18:25:44;5.23;;;3.03;;
42802;SDS011;28447;48.682;9.022;2023-11-18T18:28:10;7.03;;;3.53;;
42802;SDS011;28447;48.682;9.022;2023-11-18T18:30:47;4.27;;;3.47;;
42802;SDS011;28447;48.682;9.022;2023-11-18T18:33:14;5.43;;;3.50;;
42802;SDS011;28447;48.682;9.022;2023-11-18T18:35:40;5.70;;;3.57;;
42802;SDS011;28447;48.682;9.022;2023-11-18T18:38:10;3.53;;;2.70;;
42802;SDS011;28447;48.682;9.022;2023-11-18T18:40:36;5.67;;;3.77;;
42802;SDS011;28447;48.682;9.022;2023-11-18T18:43:02;4.20;;;3.80;;
42802;SDS011;28447;48.682;9.022;2023-11-18T18:45:28;6.90;;;3.00;;
42802;SDS011;28447;48.682;9.022;2023-11-18T18:47:55;4.53;;;3.30;;
42802;SDS011;28447;48.682;9.022;2023-11-18T18:50:23;10.63;;;7.60;;
42802;SDS011;28447;48.682;9.022;2023-11-18T18:52:49;3.87;;;2.93;;
42802;SDS011;28447;48.682;9.022;2023-11-18T18:55:15;5.07;;;3.67;;
42802;SDS011;28447;48.682;9.022;2023-11-18T18:57:41;4.20;;;3.07;;
42802;SDS011;28447;48.682;9.022;2023-11-18T19:00:07;6.23;;;5.30;;
42802;SDS011;28447;48.682;9.022;2023-11-18T19:02:37;5.40;;;2.90;;
42802;SDS011;28447;48.682;9.022;2023-11-18T19:05:04;3.63;;;3.20;;
42802;SDS011;28447;48.682;9.022;2023-11-18T19:07:30;8.43;;;6.70;;
42802;SDS011;28447;48.682;9.022;2023-11-18T19:09:57;8.33;;;4.30;;
42802;SDS011;28447;48.682;9.022;2023-11-18T19:12:23;6.20;;;4.70;;
42802;SDS011;28447;48.682;9.022;2023-11-18T19:14:49;11.30;;;9.00;;
42802;SDS011;28447;48.682;9.022;2023-11-18T19:17:15;3.60;;;3.10;;
42802;SDS011;28447;48.682;9.022;2023-11-18T19:19:41;3.37;;;3.00;;
42802;SDS011;28447;48.682;9.022;2023-11-18T19:22:07;3.13;;;2.83;;
42802;SDS011;28447;48.682;9.022;2023-11-18T19:24:33;7.40;;;6.00;;
42802;SDS011;28447;48.682;9.022;2023-11-18T19:26:59;4.77;;;3.70;;
42802;SDS011;28447;48.682;9.022;2023-11-18T19:29:25;5.43;;;3.73;;
42802;SDS011;28447;48.682;9.022;2023-11-18T19:31:51;11.00;;;3.03;;
42802;SDS011;28447;48.682;9.022;2023-11-18T19:34:19;4.27;;;3.60;;
42802;SDS011;28447;48.682;9.022;2023-11-18T19:36:46;4.67;;;3.27;;
42802;SDS011;28447;48.682;9.022;2023-11-18T19:39:12;4.77;;;3.63;;
42802;SDS011;28447;48.682;9.022;2023-11-18T19:41:38;4.00;;;3.40;;
42802;SDS011;28447;48.682;9.022;2023-11-18T19:44:05;4.90;;;3.83;;
42802;SDS011;28447;48.682;9.022;2023-11-18T19:46:31;3.50;;;3.10;;
42802;SDS011;28447;48.682;9.022;2023-11-18T19:48:57;4.50;;;3.33;;
42802;SDS011;28447;48.682;9.022;2023-11-18T19:51:25;7.53;;;3.03;;
42802;SDS011;28447;48.682;9.022;2023-11-18T19:53:51;7.50;;;4.03;;
42802;SDS011;28447;48.682;9.022;2023-11-18T19:56:17;10.70;;;5.07;;
42802;SDS011;28447;48.682;9.022;2023-11-18T19:58:43;6.13;;;3.93;;
42802;SDS011;28447;48.682;9.022;2023-11-18T20:01:13;4.00;;;3.13;;
42802;SDS011;28447;48.682;9.022;2023-11-18T20:03:39;4.60;;;2.80;;
42802;SDS011;28447;48.682;9.022;2023-11-18T20:06:05;5.13;;;3.90;;
42802;SDS011;28447;48.682;9.022;2023-11-18T20:08:32;7.80;;;3.80;;
42802;SDS011;28447;48.682;9.022;2023-11-18T20:10:58;4.10;;;3.03;;
42802;SDS011;28447;48.682;9.022;2023-11-18T20:13:24;5.63;;;3.07;;
42802;SDS011;28447;48.682;9.022;2023-11-18T20:15:50;3.47;;;2.97;;
42802;SDS011;28447;48.682;9.022;2023-11-18T20:18:19;4.77;;;2.90;;
42802;SDS011;28447;48.682;9.022;2023-11-18T20:20:45;3.40;;;2.63;;